sensor_id;sensor_type;location;lat;lon;timestamp;pressure;altitude;pressure_sealevel;temperature;humidity
64064;BME280;50314;50.618;10.642;2023-04-07T00:00:22;96685.69;;;16.21;20.15
64064;BME280;50314;50.618;10.642;2023-04-07T00:02:48;96680.34;;;16.21;20.05
64064;BME280;50314;50.618;10.642;2023-04-07T00:05:14;96676.22;;;16.18;20.06
64064;BME280;50314;50.618;10.642;2023-04-07T00:07:39;96681.66;;;16.17;20.22
64064;BME280;50314;50.618;10.642;2023-04-07T00:10:06;96678.31;;;16.15;19.95
64064;BME280;50314;50.618;10.642;2023-04-07T00:12:32;96673.13;;;16.13;20.04
64064;BME280;50314;50.618;10.642;2023-04-07T00:14:58;96679.56;;;16.11;20.20
64064;BME280;50314;50.618;10.642;2023-04-07T00:17:23;96672.75;;;16.08;20.04
64064;BME280;50314;50.618;10.642;2023-04-07T00:19:49;96673.69;;;16.07;20.22
64064;BME280;50314;50.618;10.642;2023-04-07T00:22:14;96673.03;;;16.05;20.20
64064;BME280;50314;50.618;10.642;2023-04-07T00:24:40;96680.16;;;16.05;20.04
64064;BME280;50314;50.618;10.642;2023-04-07T00:27:05;96684.78;;;16.03;20.06
64064;BME280;50314;50.618;10.642;2023-04-07T00:29:31;96679.75;;;16.00;20.23
64064;BME280;50314;50.618;10.642;2023-04-07T00:31:56;96675.44;;;15.98;20.09
64064;BME280;50314;50.618;10.642;2023-04-07T00:34:22;96677.41;;;15.96;20.45
64064;BME280;50314;50.618;10.642;2023-04-07T00:36:47;96675.88;;;15.94;20.24
64064;BME280;50314;50.618;10.642;2023-04-07T00:39:17;96669.72;;;15.93;20.19
64064;BME280;50314;50.618;10.642;2023-04-07T00:41:43;96676.72;;;15.94;20.32
64064;BME280;50314;50.618;10.642;2023-04-07T00:44:10;96670.72;;;15.92;20.24
64064;BME280;50314;50.618;10.642;2023-04-07T00:46:35;96670.88;;;15.91;20.37
64064;BME280;50314;50.618;10.642;2023-04-07T00:49:01;96663.03;;;15.89;20.21
64064;BME280;50314;50.618;10.642;2023-04-07T00:51:26;96662.38;;;15.87;20.32
64064;BME280;50314;50.618;10.642;2023-04-07T00:53:53;96661.50;;;15.87;20.47
64064;BME280;50314;50.618;10.642;2023-04-07T00:56:19;96659.16;;;15.84;20.43
64064;BME280;50314;50.618;10.642;2023-04-07T00:58:44;96663.63;;;15.83;20.37
64064;BME280;50314;50.618;10.642;2023-04-07T01:01:26;96654.44;;;15.78;20.43
64064;BME280;50314;50.618;10.642;2023-04-07T01:04:04;96655.56;;;15.75;20.44
64064;BME280;50314;50.618;10.642;2023-04-07T01:06:35;96654.75;;;15.74;20.36
64064;BME280;50314;50.618;10.642;2023-04-07T01:09:04;96656.69;;;15.72;20.63
64064;BME280;50314;50.618;10.642;2023-04-07T01:11:38;96657.81;;;15.70;20.57
64064;BME280;50314;50.618;10.642;2023-04-07T01:14:05;96659.50;;;15.71;20.58
64064;BME280;50314;50.618;10.642;2023-04-07T01:16:34;96648.34;;;15.67;20.49
64064;BME280;50314;50.618;10.642;2023-04-07T01:19:15;96649.47;;;15.65;20.70
64064;BME280;50314;50.618;10.642;2023-04-07T01:21:43;96649.47;;;15.65;20.79
64064;BME280;50314;50.618;10.642;2023-04-07T01:27:08;96650.22;;;15.57;20.69
64064;BME280;50314;50.618;10.642;2023-04-07T01:29:43;96647.38;;;15.59;20.57
64064;BME280;50314;50.618;10.642;2023-04-07T01:32:13;96644.72;;;15.59;20.47
64064;BME280;50314;50.618;10.642;2023-04-07T01:34:40;96647.38;;;15.59;20.52
64064;BME280;50314;50.618;10.642;2023-04-07T01:37:06;96647.56;;;15.57;20.47
64064;BME280;50314;50.618;10.642;2023-04-07T01:39:33;96644.03;;;15.57;20.47
64064;BME280;50314;50.618;10.642;2023-04-07T01:41:59;96654.81;;;15.55;20.61
64064;BME280;50314;50.618;10.642;2023-04-07T01:44:27;96648.97;;;15.52;20.71
64064;BME280;50314;50.618;10.642;2023-04-07T01:46:53;96649.09;;;15.50;20.71
64064;BME280;50314;50.618;10.642;2023-04-07T01:49:20;96657.22;;;15.48;20.32
64064;BME280;50314;50.618;10.642;2023-04-07T01:51:46;96652.06;;;15.47;20.43
64064;BME280;50314;50.618;10.642;2023-04-07T01:54:15;96656.50;;;15.46;20.59
64064;BME280;50314;50.618;10.642;2023-04-07T01:56:42;96659.31;;;15.45;20.35
64064;BME280;50314;50.618;10.642;2023-04-07T01:59:08;96654.00;;;15.45;20.51
64064;BME280;50314;50.618;10.642;2023-04-07T02:01:34;96651.47;;;15.43;20.42
64064;BME280;50314;50.618;10.642;2023-04-07T02:06:48;96652.88;;;15.38;20.74
64064;BME280;50314;50.618;10.642;2023-04-07T02:09:19;96645.75;;;15.38;20.53
64064;BME280;50314;50.618;10.642;2023-04-07T02:11:46;96646.59;;;15.39;20.66
64064;BME280;50314;50.618;10.642;2023-04-07T02:14:12;96652.63;;;15.31;20.57
64064;BME280;50314;50.618;10.642;2023-04-07T02:16:40;96650.53;;;15.35;20.49
64064;BME280;50314;50.618;10.642;2023-04-07T02:19:05;96639.91;;;15.35;20.69
64064;BME280;50314;50.618;10.642;2023-04-07T02:21:32;96647.03;;;15.34;20.46
64064;BME280;50314;50.618;10.642;2023-04-07T02:24:05;96640.34;;;15.30;20.57
64064;BME280;50314;50.618;10.642;2023-04-07T02:26:34;96643.84;;;15.31;20.77
64064;BME280;50314;50.618;10.642;2023-04-07T02:29:00;96635.88;;;15.31;20.81
64064;BME280;50314;50.618;10.642;2023-04-07T02:31:26;96632.53;;;15.28;20.82
64064;BME280;50314;50.618;10.642;2023-04-07T02:33:51;96644.94;;;15.28;20.43
64064;BME280;50314;50.618;10.642;2023-04-07T02:36:17;96637.00;;;15.28;20.63
64064;BME280;50314;50.618;10.642;2023-04-07T02:38:42;96640.63;;;15.27;20.67
64064;BME280;50314;50.618;10.642;2023-04-07T02:41:07;96638.09;;;15.25;20.81
64064;BME280;50314;50.618;10.642;2023-04-07T02:43:34;96647.88;;;15.25;20.42
64064;BME280;50314;50.618;10.642;2023-04-07T02:45:59;96637.28;;;15.25;20.78
64064;BME280;50314;50.618;10.642;2023-04-07T02:48:25;96640.09;;;15.23;20.42
64064;BME280;50314;50.618;10.642;2023-04-07T02:50:50;96644.53;;;15.23;20.50
64064;BME280;50314;50.618;10.642;2023-04-07T02:53:16;96630.59;;;15.21;20.86
64064;BME280;50314;50.618;10.642;2023-04-07T02:55:41;96635.06;;;15.20;20.54
64064;BME280;50314;50.618;10.642;2023-04-07T02:58:06;96637.84;;;15.19;20.79
64064;BME280;50314;50.618;10.642;2023-04-07T03:00:33;96639.81;;;15.17;20.94
64064;BME280;50314;50.618;10.642;2023-04-07T03:02:58;96631.00;;;15.16;20.74
64064;BME280;50314;50.618;10.642;2023-04-07T03:05:24;96632.00;;;15.15;20.53
64064;BME280;50314;50.618;10.642;2023-04-07T03:07:49;96631.16;;;15.15;20.83
64064;BME280;50314;50.618;10.642;2023-04-07T03:10:15;96629.50;;;15.14;20.83
64064;BME280;50314;50.618;10.642;2023-04-07T03:12:42;96623.50;;;15.12;20.52
64064;BME280;50314;50.618;10.642;2023-04-07T03:15:07;96637.59;;;15.12;20.51
64064;BME280;50314;50.618;10.642;2023-04-07T03:17:33;96629.78;;;15.11;20.78
64064;BME280;50314;50.618;10.642;2023-04-07T03:19:59;96625.44;;;15.10;20.46
64064;BME280;50314;50.618;10.642;2023-04-07T03:22:25;96626.44;;;15.09;20.56
64064;BME280;50314;50.618;10.642;2023-04-07T03:24:50;96624.75;;;15.08;20.49
64064;BME280;50314;50.618;10.642;2023-04-07T03:27:16;96623.09;;;15.07;20.63
64064;BME280;50314;50.618;10.642;2023-04-07T03:29:41;96625.88;;;15.05;20.47
64064;BME280;50314;50.618;10.642;2023-04-07T03:32:07;96627.69;;;15.04;20.53
64064;BME280;50314;50.618;10.642;2023-04-07T03:34:33;96622.56;;;15.03;21.02
64064;BME280;50314;50.618;10.642;2023-04-07T03:36:58;96618.34;;;15.00;20.88
64064;BME280;50314;50.618;10.642;2023-04-07T03:39:24;96624.63;;;14.99;20.73
64064;BME280;50314;50.618;10.642;2023-04-07T03:41:49;96617.66;;;14.98;20.64
64064;BME280;50314;50.618;10.642;2023-04-07T03:44:15;96623.94;;;14.97;20.85
64064;BME280;50314;50.618;10.642;2023-04-07T03:46:41;96612.78;;;14.94;20.89
64064;BME280;50314;50.618;10.642;2023-04-07T03:49:06;96611.13;;;14.93;20.82
64064;BME280;50314;50.618;10.642;2023-04-07T03:51:32;96617.53;;;14.90;20.90
64064;BME280;50314;50.618;10.642;2023-04-07T03:53:58;96614.19;;;14.88;20.89
64064;BME280;50314;50.618;10.642;2023-04-07T03:56:24;96617.00;;;14.87;20.69
64064;BME280;50314;50.618;10.642;2023-04-07T03:58:49;96617.00;;;14.87;20.80
64064;BME280;50314;50.618;10.642;2023-04-07T04:01:15;96610.00;;;14.86;20.75
64064;BME280;50314;50.618;10.642;2023-04-07T04:03:41;96616.44;;;14.83;21.07
64064;BME280;50314;50.618;10.642;2023-04-07T04:06:06;96608.50;;;14.83;21.00
64064;BME280;50314;50.618;10.642;2023-04-07T04:08:32;96617.41;;;14.82;21.14
64064;BME280;50314;50.618;10.642;2023-04-07T04:10:57;96614.06;;;14.80;20.75
64064;BME280;50314;50.618;10.642;2023-04-07T04:13:23;96616.84;;;14.78;20.72
64064;BME280;50314;50.618;10.642;2023-04-07T04:15:48;96618.00;;;14.76;20.78
64064;BME280;50314;50.618;10.642;2023-04-07T04:18:14;96612.97;;;14.73;21.24
64064;BME280;50314;50.618;10.642;2023-04-07T04:20:39;96623.56;;;14.73;20.89
64064;BME280;50314;50.618;10.642;2023-04-07T04:23:05;96620.22;;;14.71;20.82
64064;BME280;50314;50.618;10.642;2023-04-07T04:25:31;96616.84;;;14.69;20.93
64064;BME280;50314;50.618;10.642;2023-04-07T04:27:56;96615.19;;;14.68;20.98
64064;BME280;50314;50.618;10.642;2023-04-07T04:30:22;96612.66;;;14.66;20.86
64064;BME280;50314;50.618;10.642;2023-04-07T04:32:47;96616.97;;;14.67;20.91
64064;BME280;50314;50.618;10.642;2023-04-07T04:35:13;96605.53;;;14.67;20.83
64064;BME280;50314;50.618;10.642;2023-04-07T04:37:39;96605.53;;;14.67;20.80
64064;BME280;50314;50.618;10.642;2023-04-07T04:40:05;96606.50;;;14.66;20.95
64064;BME280;50314;50.618;10.642;2023-04-07T04:42:33;96607.50;;;14.65;21.19
64064;BME280;50314;50.618;10.642;2023-04-07T04:44:58;96610.13;;;14.65;21.20
64064;BME280;50314;50.618;10.642;2023-04-07T04:47:24;96609.47;;;14.63;21.22
64064;BME280;50314;50.618;10.642;2023-04-07T04:49:49;96606.09;;;14.61;21.30
64064;BME280;50314;50.618;10.642;2023-04-07T04:52:15;96612.41;;;14.60;21.11
64064;BME280;50314;50.618;10.642;2023-04-07T04:54:40;96609.75;;;14.60;20.97
64064;BME280;50314;50.618;10.642;2023-04-07T04:57:06;96614.22;;;14.59;21.42
64064;BME280;50314;50.618;10.642;2023-04-07T04:59:32;96614.34;;;14.57;21.01
64064;BME280;50314;50.618;10.642;2023-04-07T05:01:57;96615.16;;;14.58;20.98
64064;BME280;50314;50.618;10.642;2023-04-07T05:04:23;96615.03;;;14.60;21.36
64064;BME280;50314;50.618;10.642;2023-04-07T05:06:48;96614.22;;;14.59;21.15
64064;BME280;50314;50.618;10.642;2023-04-07T05:09:14;96612.50;;;14.58;21.42
64064;BME280;50314;50.618;10.642;2023-04-07T05:11:40;96611.56;;;14.59;21.11
64064;BME280;50314;50.618;10.642;2023-04-07T05:14:06;96616.97;;;14.57;21.28
64064;BME280;50314;50.618;10.642;2023-04-07T05:16:31;96614.34;;;14.57;21.01
64064;BME280;50314;50.618;10.642;2023-04-07T05:18:57;96619.63;;;14.57;21.11
64064;BME280;50314;50.618;10.642;2023-04-07T05:21:22;96613.34;;;14.58;21.42
64064;BME280;50314;50.618;10.642;2023-04-07T05:23:48;96610.03;;;14.56;21.02
64064;BME280;50314;50.618;10.642;2023-04-07T05:26:13;96612.66;;;14.56;21.19
64064;BME280;50314;50.618;10.642;2023-04-07T05:28:39;96612.66;;;14.56;21.15
64064;BME280;50314;50.618;10.642;2023-04-07T05:31:05;96614.50;;;14.56;21.15
64064;BME280;50314;50.618;10.642;2023-04-07T05:33:30;96610.28;;;14.53;21.36
64064;BME280;50314;50.618;10.642;2023-04-07T05:35:56;96613.63;;;14.55;21.31
64064;BME280;50314;50.618;10.642;2023-04-07T05:38:21;96606.53;;;14.56;21.63
64064;BME280;50314;50.618;10.642;2023-04-07T05:40:47;96607.38;;;14.56;21.49
64064;BME280;50314;50.618;10.642;2023-04-07T05:43:12;96611.69;;;14.57;21.70
64064;BME280;50314;50.618;10.642;2023-04-07T05:45:38;96613.34;;;14.58;21.27
64064;BME280;50314;50.618;10.642;2023-04-07T05:48:03;96608.19;;;14.57;21.45
64064;BME280;50314;50.618;10.642;2023-04-07T05:50:29;96608.91;;;14.59;21.14
64064;BME280;50314;50.618;10.642;2023-04-07T05:52:54;96606.25;;;14.59;21.45
64064;BME280;50314;50.618;10.642;2023-04-07T05:55:27;96615.03;;;14.60;21.48
64064;BME280;50314;50.618;10.642;2023-04-07T05:57:52;96610.69;;;14.58;21.84
64064;BME280;50314;50.618;10.642;2023-04-07T06:00:18;96615.03;;;14.60;21.66
64064;BME280;50314;50.618;10.642;2023-04-07T06:02:44;96611.56;;;14.59;21.61
64064;BME280;50314;50.618;10.642;2023-04-07T06:05:10;96617.53;;;14.61;21.61
64064;BME280;50314;50.618;10.642;2023-04-07T06:07:35;96616.56;;;14.62;21.86
64064;BME280;50314;50.618;10.642;2023-04-07T06:10:01;96617.25;;;14.64;22.00
64064;BME280;50314;50.618;10.642;2023-04-07T06:12:26;96616.44;;;14.64;21.92
64064;BME280;50314;50.618;10.642;2023-04-07T06:14:53;96618.09;;;14.65;21.84
64064;BME280;50314;50.618;10.642;2023-04-07T06:17:19;96618.81;;;14.67;22.11
64064;BME280;50314;50.618;10.642;2023-04-07T06:19:44;96621.44;;;14.67;21.84
64064;BME280;50314;50.618;10.642;2023-04-07T06:22:10;96617.72;;;14.69;21.69
64064;BME280;50314;50.618;10.642;2023-04-07T06:24:35;96619.09;;;14.73;21.72
64064;BME280;50314;50.618;10.642;2023-04-07T06:27:01;96616.19;;;14.76;22.05
64064;BME280;50314;50.618;10.642;2023-04-07T06:29:34;96610.44;;;14.81;21.72
64064;BME280;50314;50.618;10.642;2023-04-07T06:31:59;96610.16;;;14.84;22.04
64064;BME280;50314;50.618;10.642;2023-04-07T06:34:25;96611.53;;;14.88;21.86
64064;BME280;50314;50.618;10.642;2023-04-07T06:36:51;96611.13;;;14.93;21.74
64064;BME280;50314;50.618;10.642;2023-04-07T06:39:16;96612.34;;;14.98;21.70
64064;BME280;50314;50.618;10.642;2023-04-07T06:41:42;96618.06;;;15.03;21.94
64064;BME280;50314;50.618;10.642;2023-04-07T06:44:10;96614.81;;;15.10;22.23
64064;BME280;50314;50.618;10.642;2023-04-07T06:46:35;96612.59;;;15.15;21.06
64064;BME280;50314;50.618;10.642;2023-04-07T06:49:01;96613.00;;;15.20;21.02
64064;BME280;50314;50.618;10.642;2023-04-07T06:51:28;96615.06;;;15.26;21.20
64064;BME280;50314;50.618;10.642;2023-04-07T06:53:53;96606.53;;;15.32;20.88
64064;BME280;50314;50.618;10.642;2023-04-07T06:56:19;96601.47;;;15.39;21.01
64064;BME280;50314;50.618;10.642;2023-04-07T06:58:45;96605.25;;;15.46;21.04
64064;BME280;50314;50.618;10.642;2023-04-07T07:01:11;96606.19;;;15.55;21.08
64064;BME280;50314;50.618;10.642;2023-04-07T07:03:36;96594.72;;;15.64;21.33
64064;BME280;50314;50.618;10.642;2023-04-07T07:06:02;96598.16;;;15.74;21.15
64064;BME280;50314;50.618;10.642;2023-04-07T07:08:28;96594.56;;;15.83;21.27
64064;BME280;50314;50.618;10.642;2023-04-07T07:10:54;96604.31;;;15.92;21.38
64064;BME280;50314;50.618;10.642;2023-04-07T07:13:22;96607.75;;;16.03;21.15
64064;BME280;50314;50.618;10.642;2023-04-07T07:15:48;96609.53;;;16.12;21.35
64064;BME280;50314;50.618;10.642;2023-04-07T07:18:13;96606.94;;;16.20;21.20
64064;BME280;50314;50.618;10.642;2023-04-07T07:20:39;96612.50;;;16.27;21.27
64064;BME280;50314;50.618;10.642;2023-04-07T07:23:04;96612.44;;;16.36;21.16
64064;BME280;50314;50.618;10.642;2023-04-07T07:25:30;96607.03;;;16.46;21.11
64064;BME280;50314;50.618;10.642;2023-04-07T07:27:55;96606.13;;;16.55;21.16
64064;BME280;50314;50.618;10.642;2023-04-07T07:30:22;96614.16;;;16.63;21.18
64064;BME280;50314;50.618;10.642;2023-04-07T07:32:48;96601.78;;;16.72;20.33
64064;BME280;50314;50.618;10.642;2023-04-07T07:35:14;96606.34;;;16.80;19.97
64064;BME280;50314;50.618;10.642;2023-04-07T07:37:40;96605.56;;;16.87;19.85
64064;BME280;50314;50.618;10.642;2023-04-07T07:40:06;96610.66;;;16.99;19.85
64064;BME280;50314;50.618;10.642;2023-04-07T07:42:32;96607.22;;;17.06;20.01
64064;BME280;50314;50.618;10.642;2023-04-07T07:44:58;96614.41;;;17.14;20.31
64064;BME280;50314;50.618;10.642;2023-04-07T07:47:24;96613.47;;;17.23;20.50
64064;BME280;50314;50.618;10.642;2023-04-07T07:49:50;96613.19;;;17.34;20.55
64064;BME280;50314;50.618;10.642;2023-04-07T07:52:15;96616.56;;;17.45;20.56
64064;BME280;50314;50.618;10.642;2023-04-07T07:54:41;96611.34;;;17.53;19.88
64064;BME280;50314;50.618;10.642;2023-04-07T07:57:06;96614.03;;;17.61;19.91
64064;BME280;50314;50.618;10.642;2023-04-07T07:59:32;96620.88;;;17.72;19.94
64064;BME280;50314;50.618;10.642;2023-04-07T08:01:58;96611.94;;;17.81;20.26
64064;BME280;50314;50.618;10.642;2023-04-07T08:04:23;96617.81;;;17.93;20.12
64064;BME280;50314;50.618;10.642;2023-04-07T08:06:49;96623.50;;;18.06;20.19
64064;BME280;50314;50.618;10.642;2023-04-07T08:09:16;96616.91;;;18.18;20.22
64064;BME280;50314;50.618;10.642;2023-04-07T08:11:42;96618.09;;;18.32;20.38
64064;BME280;50314;50.618;10.642;2023-04-07T08:14:08;96618.47;;;18.45;20.46
64064;BME280;50314;50.618;10.642;2023-04-07T08:16:33;96613.47;;;18.59;19.96
64064;BME280;50314;50.618;10.642;2023-04-07T08:18:59;96617.66;;;18.77;20.20
64064;BME280;50314;50.618;10.642;2023-04-07T08:21:24;96609.00;;;19.08;20.44
64064;BME280;50314;50.618;10.642;2023-04-07T08:23:52;96616.44;;;19.45;20.64
64064;BME280;50314;50.618;10.642;2023-04-07T08:26:18;96602.94;;;19.86;20.16
64064;BME280;50314;50.618;10.642;2023-04-07T08:28:45;96612.88;;;20.32;19.74
64064;BME280;50314;50.618;10.642;2023-04-07T08:31:10;96614.09;;;20.75;19.56
64064;BME280;50314;50.618;10.642;2023-04-07T08:33:36;96616.25;;;21.18;18.91
64064;BME280;50314;50.618;10.642;2023-04-07T08:36:01;96613.31;;;21.57;17.45
64064;BME280;50314;50.618;10.642;2023-04-07T08:38:27;96607.59;;;21.90;16.08
64064;BME280;50314;50.618;10.642;2023-04-07T08:41:20;96606.28;;;22.15;14.99
64064;BME280;50314;50.618;10.642;2023-04-07T08:43:43;96608.69;;;22.46;15.05
64064;BME280;50314;50.618;10.642;2023-04-07T08:46:11;96612.19;;;22.68;14.45
64064;BME280;50314;50.618;10.642;2023-04-07T08:48:37;96604.53;;;22.87;14.27
64064;BME280;50314;50.618;10.642;2023-04-07T08:51:05;96607.94;;;23.24;15.17
64064;BME280;50314;50.618;10.642;2023-04-07T08:53:40;96605.03;;;23.53;14.72
64064;BME280;50314;50.618;10.642;2023-04-07T08:56:10;96598.59;;;23.89;13.91
64064;BME280;50314;50.618;10.642;2023-04-07T08:58:35;96599.13;;;24.06;13.27
64064;BME280;50314;50.618;10.642;2023-04-07T09:01:04;96605.13;;;24.01;12.78
64064;BME280;50314;50.618;10.642;2023-04-07T09:03:31;96602.28;;;23.75;12.62
64064;BME280;50314;50.618;10.642;2023-04-07T09:06:00;96602.97;;;23.49;13.25
64064;BME280;50314;50.618;10.642;2023-04-07T09:08:25;96600.94;;;23.29;13.46
64064;BME280;50314;50.618;10.642;2023-04-07T09:10:51;96604.06;;;23.33;13.52
64064;BME280;50314;50.618;10.642;2023-04-07T09:13:17;96603.06;;;23.68;14.48
64064;BME280;50314;50.618;10.642;2023-04-07T09:15:43;96597.47;;;24.05;14.05
64064;BME280;50314;50.618;10.642;2023-04-07T09:18:08;96595.88;;;24.37;14.41
64064;BME280;50314;50.618;10.642;2023-04-07T09:21:00;96599.91;;;24.81;13.84
64064;BME280;50314;50.618;10.642;2023-04-07T09:23:30;96604.91;;;25.30;13.51
64064;BME280;50314;50.618;10.642;2023-04-07T09:25:57;96594.28;;;25.62;12.45
64064;BME280;50314;50.618;10.642;2023-04-07T09:28:42;96599.28;;;25.52;12.30
64064;BME280;50314;50.618;10.642;2023-04-07T09:31:09;96591.84;;;25.34;12.51
64064;BME280;50314;50.618;10.642;2023-04-07T09:33:34;96595.94;;;25.70;12.69
64064;BME280;50314;50.618;10.642;2023-04-07T09:36:02;96587.19;;;25.74;12.49
64064;BME280;50314;50.618;10.642;2023-04-07T09:38:40;96588.31;;;25.40;12.66
64064;BME280;50314;50.618;10.642;2023-04-07T09:41:06;96590.63;;;25.10;13.00
64064;BME280;50314;50.618;10.642;2023-04-07T09:43:34;96586.47;;;25.14;13.03
64064;BME280;50314;50.618;10.642;2023-04-07T09:46:26;96581.06;;;24.81;13.22
64064;BME280;50314;50.618;10.642;2023-04-07T09:49:02;96585.81;;;24.59;13.26
64064;BME280;50314;50.618;10.642;2023-04-07T09:51:30;96583.13;;;24.59;13.39
64064;BME280;50314;50.618;10.642;2023-04-07T09:53:58;96580.88;;;24.96;13.76
64064;BME280;50314;50.618;10.642;2023-04-07T09:56:24;96577.13;;;25.37;13.67
64064;BME280;50314;50.618;10.642;2023-04-07T09:58:51;96574.75;;;25.80;13.43
64064;BME280;50314;50.618;10.642;2023-04-07T10:01:17;96572.88;;;26.25;12.94
64064;BME280;50314;50.618;10.642;2023-04-07T10:03:44;96564.31;;;26.67;12.62
64064;BME280;50314;50.618;10.642;2023-04-07T10:06:11;96565.94;;;27.00;13.02
64064;BME280;50314;50.618;10.642;2023-04-07T10:08:39;96564.91;;;27.01;12.34
64064;BME280;50314;50.618;10.642;2023-04-07T10:11:06;96568.75;;;26.86;12.53
64064;BME280;50314;50.618;10.642;2023-04-07T10:13:32;96565.31;;;26.72;12.65
64064;BME280;50314;50.618;10.642;2023-04-07T10:15:59;96558.09;;;26.66;13.03
64064;BME280;50314;50.618;10.642;2023-04-07T10:18:31;96565.38;;;26.91;12.76
64064;BME280;50314;50.618;10.642;2023-04-07T10:21:01;96565.09;;;27.24;12.66
64064;BME280;50314;50.618;10.642;2023-04-07T10:23:46;96559.28;;;27.64;12.60
64064;BME280;50314;50.618;10.642;2023-04-07T10:26:15;96554.59;;;28.08;12.15
64064;BME280;50314;50.618;10.642;2023-04-07T10:28:45;96548.66;;;28.48;11.76
64064;BME280;50314;50.618;10.642;2023-04-07T10:31:12;96553.91;;;28.85;11.76
64064;BME280;50314;50.618;10.642;2023-04-07T10:33:50;96553.13;;;29.19;11.23
64064;BME280;50314;50.618;10.642;2023-04-07T10:36:20;96553.13;;;29.55;10.99
64064;BME280;50314;50.618;10.642;2023-04-07T10:44:00;96549.38;;;30.53;10.67
64064;BME280;50314;50.618;10.642;2023-04-07T10:49:13;96549.56;;;31.14;10.49
64064;BME280;50314;50.618;10.642;2023-04-07T10:51:39;96550.22;;;31.38;10.43
64064;BME280;50314;50.618;10.642;2023-04-07T10:59:27;96548.22;;;32.11;9.76
64064;BME280;50314;50.618;10.642;2023-04-07T11:04:47;96540.41;;;32.47;9.38
64064;BME280;50314;50.618;10.642;2023-04-07T11:07:14;96546.47;;;32.54;8.26
64064;BME280;50314;50.618;10.642;2023-04-07T11:09:40;96542.69;;;32.55;7.48
64064;BME280;50314;50.618;10.642;2023-04-07T11:12:06;96545.03;;;32.46;6.70
64064;BME280;50314;50.618;10.642;2023-04-07T11:14:33;96548.75;;;32.13;7.01
64064;BME280;50314;50.618;10.642;2023-04-07T11:17:01;96547.16;;;31.73;7.09
64064;BME280;50314;50.618;10.642;2023-04-07T11:19:27;96545.28;;;31.35;7.28
64064;BME280;50314;50.618;10.642;2023-04-07T11:22:12;96543.19;;;30.86;7.09
64064;BME280;50314;50.618;10.642;2023-04-07T11:24:39;96544.84;;;30.59;7.11
64064;BME280;50314;50.618;10.642;2023-04-07T11:27:04;96538.31;;;30.26;7.12
64064;BME280;50314;50.618;10.642;2023-04-07T11:29:31;96541.03;;;29.86;7.36
64064;BME280;50314;50.618;10.642;2023-04-07T11:32:01;96544.41;;;29.53;7.22
64064;BME280;50314;50.618;10.642;2023-04-07T11:34:31;96535.44;;;29.17;6.89
64064;BME280;50314;50.618;10.642;2023-04-07T11:36:57;96539.28;;;28.86;7.37
64064;BME280;50314;50.618;10.642;2023-04-07T11:39:27;96542.31;;;28.54;7.54
64064;BME280;50314;50.618;10.642;2023-04-07T11:41:55;96534.31;;;28.29;7.43
64064;BME280;50314;50.618;10.642;2023-04-07T11:44:21;96534.03;;;28.07;7.42
64064;BME280;50314;50.618;10.642;2023-04-07T11:46:58;96542.09;;;27.77;7.29
64064;BME280;50314;50.618;10.642;2023-04-07T11:49:25;96537.53;;;27.59;7.88
64064;BME280;50314;50.618;10.642;2023-04-07T11:52:04;96545.81;;;27.39;7.88
64064;BME280;50314;50.618;10.642;2023-04-07T11:54:44;96541.28;;;27.14;7.84
64064;BME280;50314;50.618;10.642;2023-04-07T11:57:23;96545.44;;;26.92;7.70
64064;BME280;50314;50.618;10.642;2023-04-07T11:59:49;96545.34;;;26.74;8.26
64064;BME280;50314;50.618;10.642;2023-04-07T12:02:31;96554.47;;;26.47;7.87
64064;BME280;50314;50.618;10.642;2023-04-07T12:04:57;96543.97;;;26.33;8.25
64064;BME280;50314;50.618;10.642;2023-04-07T12:07:23;96541.78;;;26.16;8.12
64064;BME280;50314;50.618;10.642;2023-04-07T12:09:48;96550.38;;;26.00;8.29
64064;BME280;50314;50.618;10.642;2023-04-07T12:12:24;96545.28;;;25.78;8.05
64064;BME280;50314;50.618;10.642;2023-04-07T12:14:50;96550.28;;;25.68;8.26
64064;BME280;50314;50.618;10.642;2023-04-07T12:17:23;96549.31;;;25.49;8.18
64064;BME280;50314;50.618;10.642;2023-04-07T12:19:49;96549.94;;;25.38;8.17
64064;BME280;50314;50.618;10.642;2023-04-07T12:22:14;96548.31;;;25.24;8.47
64064;BME280;50314;50.618;10.642;2023-04-07T12:24:40;96541.91;;;25.12;8.38
64064;BME280;50314;50.618;10.642;2023-04-07T12:27:06;96544.41;;;25.00;8.65
64064;BME280;50314;50.618;10.642;2023-04-07T12:29:33;96549.97;;;24.85;8.90
64064;BME280;50314;50.618;10.642;2023-04-07T12:31:58;96549.78;;;24.73;8.78
64064;BME280;50314;50.618;10.642;2023-04-07T12:34:23;96548.75;;;24.61;8.84
64064;BME280;50314;50.618;10.642;2023-04-07T12:36:49;96553.50;;;24.52;9.10
64064;BME280;50314;50.618;10.642;2023-04-07T12:39:15;96553.25;;;24.47;8.72
64064;BME280;50314;50.618;10.642;2023-04-07T12:41:41;96553.06;;;24.42;8.89
64064;BME280;50314;50.618;10.642;2023-04-07T12:44:06;96562.34;;;24.33;8.55
64064;BME280;50314;50.618;10.642;2023-04-07T12:46:32;96548.25;;;24.24;8.51
64064;BME280;50314;50.618;10.642;2023-04-07T12:48:58;96547.81;;;24.14;8.81
64064;BME280;50314;50.618;10.642;2023-04-07T12:51:24;96546.38;;;24.05;9.17
64064;BME280;50314;50.618;10.642;2023-04-07T12:53:50;96550.63;;;23.92;9.12
64064;BME280;50314;50.618;10.642;2023-04-07T12:56:15;96547.72;;;23.87;9.09
64064;BME280;50314;50.618;10.642;2023-04-07T12:58:41;96544.59;;;23.77;9.02
64064;BME280;50314;50.618;10.642;2023-04-07T13:01:07;96544.09;;;23.67;9.00
64064;BME280;50314;50.618;10.642;2023-04-07T13:03:32;96547.19;;;23.57;9.16
64064;BME280;50314;50.618;10.642;2023-04-07T13:05:58;96544.88;;;23.48;9.52
64064;BME280;50314;50.618;10.642;2023-04-07T13:08:26;96542.50;;;23.38;8.96
64064;BME280;50314;50.618;10.642;2023-04-07T13:10:52;96547.19;;;23.29;9.27
64064;BME280;50314;50.618;10.642;2023-04-07T13:13:17;96544.03;;;23.19;9.63